aviador You're here:

KBFD Decoded Metar

BRADFORD in PA, USA
Report Time2017-06-29 06:53:00
UTC Time2017-06-29 07:14:15
Flight Rules vfr VFR
Wind210° at 04 kt
W.Decomp.*RWY 23: 4.0 kt HW 0.6 kt LCW
RWY 14: 0.6 kt HW 4.0 kt RCW
W.Rank210° ranks 15
Current wind is below 210° avg. (6.5)
Visibility9999 m
Phenomena:N/A
Clouds:Overcast 110 Hf
Expected CloudBase > 2,000 ft AGL from Temp-Dew spread
Ceiling11,000 ft
Temp16°C (ISA +5)
Dew Point11°C (72% RH)
AAT14.9°C
QNH1020 hPa
Density Alt2,684 ft
Elevation2,123 ft
Report Wrong Elevation
Raw Report
METAR KBFD 290653Z AUTO 21004KT 10SM OVC110 16/11 A3012 RMK AO2 SLP186
T01610106=

Extra information for KBFD:More info

Metar Taf Metar & Taf Last 4 Metars F.Rules Stats Wind Profile Meteogram Temp Stats Airport Information Weather charts Add Link Nearby VenuesMetar ALERT Operation Metar Decoded Social comments

AIRNAV info for KBFD